Terminal Aerodrome Forecast
Issued by NWS Austin/San Antonio, TX

Current Version | Previous Version | Text Only | Print | Product List | Glossary On
Versions: 1 2 3 4 5 6 7 8 9 10 11 12 13 14 15 16 17 18 19
450
FTUS44 KEWX 300148 AAA
TAFSAT
TAF AMD
KSAT 300148Z 3002/0106 32016G26KT P6SM FEW060 BKN250
     FM300600 35010KT P6SM FEW025 BKN070
     FM301500 32013G23KT P6SM FEW090
     FM302100 31012KT P6SM FEW250=

USA.gov is the U.S. government's official web portal to all federal, state and local government web resources and services.